Main page
METAR-TAF:

METAR-TAF

Airports :

Arad International Airport

Arad, Romania

latitude: 46-12N, longitude: 021-24E, elevation: 117 m

Current weather observation

The report was made 37 minutes ago, at 11:00 UTC
Wind 6 kt from the East, varying between East/Northeast and South
Temperature 27°C
Humidity 39%
Pressure 1018 hPa
Visibility 10 km or more
Scattered clouds at a height of 2900 ft

METAR: LRAR 251100Z 10006KT 070V170 9999 SCT029 27/12 Q1018

Time: 14:37 (11:37 UTC)

Forecast

The report was made 3 hours and 37 minutes ago, at 08:00 UTC
Forecast valid from 25 at 09 UTC to 25 at 18 UTC
Wind 8 kt from the East/Southeast
Visibility 10 km or more
no clouds below 1500 m and no cumulonimbus
Probability 40% :
Temporary
from 25 at 12 UTC to 25 at 16 UTC
Wind 20 kt from variable directions
Few clouds at a height of 3500 ft, Cumulonimbus.

TAF: LRAR 250800Z 2509/2518 12008KT CAVOK PROB40 TEMPO 2512/2516 VRB20KT FEW035CB

Weather observations and forecasts of more than 4000 airports (METAR and TAF reports).

The available stations are represented by yellow and red dots on the map.

Hover mouse over dot to see the name of the station.

Then click to see weather observations and forecasts.

To change the map : click on the green buttons with a black cross to zoom in, on the green button with a dash to zoom out, or on the green arrows for adjacent maps.


METAR-TAF: